createdAt,value
2023-05-22T00:00:27.400Z,100.00
2023-05-22T00:02:47.039Z,100.00
2023-05-22T00:04:52.250Z,100.00
2023-05-22T00:06:57.240Z,100.00
2023-05-22T00:09:10.508Z,100.00
2023-05-22T00:11:22.563Z,100.00
2023-05-22T00:13:30.471Z,100.00
2023-05-22T00:15:36.662Z,100.00
2023-05-22T00:17:55.654Z,100.00
2023-05-22T00:20:04.746Z,100.00
2023-05-22T00:22:09.668Z,100.00
2023-05-22T00:24:14.578Z,100.00
2023-05-22T00:26:23.590Z,100.00
2023-05-22T00:28:28.759Z,100.00
2023-05-22T00:30:33.693Z,100.00
2023-05-22T00:32:38.994Z,100.00
2023-05-22T00:35:04.112Z,100.00
2023-05-22T00:37:09.023Z,100.00
2023-05-22T00:39:14.191Z,100.00
2023-05-22T00:41:22.495Z,100.00
2023-05-22T00:43:27.551Z,100.00
2023-05-22T00:45:32.516Z,100.00
2023-05-22T00:47:37.549Z,100.00
2023-05-22T00:49:42.996Z,100.00
2023-05-22T00:51:49.151Z,100.00
2023-05-22T00:53:54.870Z,100.00
2023-05-22T00:56:04.268Z,100.00
2023-05-22T00:58:17.340Z,100.00
2023-05-22T01:00:23.194Z,100.00
2023-05-22T01:02:38.775Z,100.00
2023-05-22T01:04:45.786Z,100.00
2023-05-22T01:06:51.273Z,100.00
2023-05-22T01:08:56.781Z,100.00
2023-05-22T01:11:05.143Z,100.00
2023-05-22T01:13:25.317Z,100.00
2023-05-22T01:15:39.750Z,100.00
2023-05-22T01:17:53.456Z,100.00
2023-05-22T01:20:10.495Z,100.00
2023-05-22T01:22:30.450Z,100.00
2023-05-22T01:25:05.626Z,100.00
2023-05-22T01:27:58.477Z,100.00
2023-05-22T01:30:21.315Z,100.00
2023-05-22T01:32:30.455Z,100.00
2023-05-22T01:34:38.660Z,100.00
2023-05-22T01:36:44.890Z,100.00
2023-05-22T01:38:50.277Z,100.00
2023-05-22T01:40:56.798Z,100.00
2023-05-22T01:43:02.047Z,100.00
2023-05-22T01:45:07.219Z,100.00
2023-05-22T01:47:12.163Z,100.00
2023-05-22T01:49:19.920Z,100.00
2023-05-22T01:51:32.110Z,100.00
2023-05-22T01:53:45.241Z,100.00
2023-05-22T01:56:01.388Z,100.00
2023-05-22T01:58:18.105Z,100.00
2023-05-22T02:00:29.993Z,100.00
2023-05-22T02:02:37.698Z,100.00
2023-05-22T02:05:07.969Z,100.00
2023-05-22T02:07:16.931Z,100.00
2023-05-22T02:09:33.916Z,100.00
2023-05-22T02:11:42.284Z,100.00
2023-05-22T02:13:47.354Z,100.00
2023-05-22T02:15:52.775Z,100.00
2023-05-22T02:18:13.081Z,100.00
2023-05-22T02:20:22.100Z,100.00
2023-05-22T02:22:27.368Z,100.00
2023-05-22T02:24:37.401Z,100.00
2023-05-22T02:26:42.754Z,100.00
2023-05-22T02:28:47.728Z,100.00
2023-05-22T02:30:52.938Z,100.00
2023-05-22T02:32:58.574Z,100.00
2023-05-22T02:35:03.760Z,100.00
2023-05-22T02:37:16.019Z,100.00
2023-05-22T02:39:23.077Z,100.00
2023-05-22T02:41:32.235Z,100.00
2023-05-22T02:43:37.313Z,100.00
2023-05-22T02:46:05.983Z,100.00
2023-05-22T02:48:11.459Z,100.00
2023-05-22T02:50:16.652Z,100.00
2023-05-22T02:52:33.784Z,100.00
2023-05-22T02:54:38.816Z,100.00
2023-05-22T02:57:08.515Z,100.00
2023-05-22T02:59:13.508Z,100.00
2023-05-22T03:01:18.787Z,100.00
2023-05-22T03:03:25.401Z,100.00
2023-05-22T03:05:31.588Z,100.00
2023-05-22T03:07:40.563Z,100.00
2023-05-22T03:09:54.324Z,100.00
2023-05-22T03:11:59.020Z,100.00
2023-05-22T03:14:04.658Z,100.00
2023-05-22T03:16:10.125Z,100.00
2023-05-22T03:18:20.008Z,100.00
2023-05-22T03:20:24.879Z,100.00
2023-05-22T03:22:29.883Z,100.00
2023-05-22T03:24:37.562Z,100.00
2023-05-22T03:26:49.472Z,100.00
2023-05-22T03:29:01.985Z,100.00
2023-05-22T03:31:09.583Z,100.00
2023-05-22T03:33:29.436Z,100.00
2023-05-22T03:35:34.483Z,100.00
2023-05-22T03:37:39.580Z,100.00
2023-05-22T03:40:04.433Z,100.00
2023-05-22T03:42:13.702Z,100.00
2023-05-22T03:47:08.385Z,100.00
2023-05-22T03:49:13.486Z,100.00
2023-05-22T03:51:20.260Z,100.00
2023-05-22T03:53:25.527Z,100.00
2023-05-22T03:55:31.410Z,100.00
2023-05-22T03:57:38.950Z,100.00
2023-05-22T04:00:06.566Z,100.00
2023-05-22T04:02:17.730Z,100.00
2023-05-22T04:04:22.865Z,100.00
2023-05-22T04:06:33.126Z,100.00
2023-05-22T04:08:38.115Z,100.00
2023-05-22T04:10:46.750Z,100.00
2023-05-22T04:12:54.864Z,100.00
2023-05-22T04:14:59.841Z,100.00
2023-05-22T04:17:04.756Z,100.00
2023-05-22T04:19:09.851Z,100.00
2023-05-22T04:21:14.898Z,100.00
2023-05-22T04:23:19.852Z,100.00
2023-05-22T04:25:25.006Z,100.00
2023-05-22T04:27:31.017Z,100.00
2023-05-22T04:29:41.757Z,100.00
2023-05-22T04:31:47.908Z,100.00
2023-05-22T04:33:54.789Z,100.00
2023-05-22T04:36:00.783Z,100.00
2023-05-22T04:38:09.208Z,100.00
2023-05-22T04:40:15.582Z,100.00
2023-05-22T04:42:20.760Z,100.00
2023-05-22T04:44:26.009Z,100.00
2023-05-22T04:46:34.640Z,100.00
2023-05-22T04:48:40.432Z,100.00
2023-05-22T04:50:46.606Z,100.00
2023-05-22T04:52:51.816Z,100.00
2023-05-22T04:54:58.806Z,100.00
2023-05-22T04:57:05.897Z,100.00
2023-05-22T04:59:11.717Z,100.00
2023-05-22T05:01:17.168Z,100.00
2023-05-22T05:03:25.938Z,100.00
2023-05-22T05:05:31.094Z,100.00
2023-05-22T05:07:36.696Z,100.00
2023-05-22T05:09:41.789Z,100.00
2023-05-22T05:11:46.828Z,100.00
2023-05-22T05:13:51.871Z,100.00
2023-05-22T05:15:57.968Z,100.00
2023-05-22T05:18:03.077Z,100.00
2023-05-22T05:20:11.061Z,100.00
2023-05-22T05:22:16.250Z,100.00
2023-05-22T05:24:21.128Z,100.00
2023-05-22T05:26:27.422Z,100.00
2023-05-22T05:28:32.807Z,100.00
2023-05-22T05:30:38.944Z,100.00
2023-05-22T05:32:57.970Z,100.00
2023-05-22T05:35:13.829Z,100.00
2023-05-22T05:37:23.265Z,100.00
2023-05-22T05:39:28.790Z,100.00
2023-05-22T05:41:35.651Z,100.00
2023-05-22T05:43:45.713Z,100.00
2023-05-22T05:45:50.599Z,100.00
2023-05-22T05:47:58.269Z,100.00
2023-05-22T05:50:03.591Z,100.00
2023-05-22T05:52:13.334Z,100.00
2023-05-22T05:54:19.106Z,100.00
2023-05-22T05:56:25.930Z,100.00
2023-05-22T05:58:31.676Z,100.00
2023-05-22T06:00:56.206Z,100.00
2023-05-22T06:03:02.334Z,100.00
2023-05-22T06:05:29.624Z,100.00
2023-05-22T06:07:48.794Z,100.00
2023-05-22T06:09:53.840Z,100.00
2023-05-22T06:12:19.133Z,100.00
2023-05-22T06:14:24.106Z,100.00
2023-05-22T06:16:29.722Z,100.00
2023-05-22T06:18:34.931Z,100.00
2023-05-22T06:20:41.334Z,100.00
2023-05-22T06:22:49.172Z,100.00
2023-05-22T06:24:54.595Z,100.00
2023-05-22T06:27:02.714Z,100.00
2023-05-22T06:29:09.100Z,100.00
2023-05-22T06:31:15.668Z,100.00
2023-05-22T06:33:23.352Z,100.00
2023-05-22T06:35:28.838Z,100.00
2023-05-22T06:37:35.951Z,100.00
2023-05-22T06:39:43.993Z,100.00
2023-05-22T06:42:00.617Z,100.00
2023-05-22T06:44:26.355Z,100.00
2023-05-22T06:46:34.877Z,100.00
2023-05-22T06:48:42.143Z,100.00
2023-05-22T06:50:52.336Z,100.00
2023-05-22T06:52:57.070Z,100.00
2023-05-22T06:55:05.932Z,100.00
2023-05-22T06:57:24.235Z,100.00
2023-05-22T06:59:29.594Z,100.00
2023-05-22T07:01:43.341Z,100.00
2023-05-22T07:03:52.424Z,100.00
2023-05-22T07:06:13.647Z,100.00
2023-05-22T07:08:19.041Z,100.00
2023-05-22T07:10:27.983Z,100.00
2023-05-22T07:12:34.477Z,100.00
2023-05-22T07:14:41.625Z,100.00
2023-05-22T07:16:47.044Z,100.00
2023-05-22T07:18:57.222Z,100.00
2023-05-22T07:21:03.290Z,100.00
2023-05-22T07:23:09.388Z,100.00
2023-05-22T07:25:16.097Z,100.00
2023-05-22T07:27:24.523Z,100.00
2023-05-22T07:29:29.619Z,100.00
2023-05-22T07:31:37.236Z,100.00
2023-05-22T07:33:43.495Z,100.00
2023-05-22T07:35:49.182Z,100.00
2023-05-22T07:37:56.723Z,100.00
2023-05-22T07:40:02.313Z,100.00
2023-05-22T07:42:09.434Z,100.00
2023-05-22T07:44:23.952Z,100.00
2023-05-22T07:46:29.065Z,100.00
2023-05-22T07:48:40.320Z,100.00
2023-05-22T07:50:46.001Z,100.00
2023-05-22T07:52:52.040Z,100.00
2023-05-22T07:54:57.388Z,100.00
2023-05-22T07:57:04.599Z,100.00
2023-05-22T07:59:15.295Z,100.00
2023-05-22T08:01:22.832Z,100.00
2023-05-22T08:03:28.040Z,100.00
2023-05-22T08:05:33.204Z,100.00
2023-05-22T08:07:38.037Z,100.00
2023-05-22T08:09:46.280Z,100.00
2023-05-22T08:11:51.260Z,100.00
2023-05-22T08:13:56.047Z,100.00
2023-05-22T08:16:01.667Z,100.00
2023-05-22T08:18:09.651Z,100.00
2023-05-22T08:20:15.848Z,100.00
2023-05-22T08:22:20.790Z,100.00
2023-05-22T08:24:31.219Z,100.00
2023-05-22T08:26:36.281Z,100.00
2023-05-22T08:28:44.330Z,98.84
2023-05-22T08:30:49.352Z,95.90
2023-05-22T08:32:54.065Z,95.14
2023-05-22T08:35:02.409Z,93.58
2023-05-22T08:37:07.651Z,94.96
2023-05-22T08:39:13.225Z,94.72
2023-05-22T08:41:18.946Z,94.45
2023-05-22T08:43:24.148Z,94.31
2023-05-22T08:45:34.149Z,93.54
2023-05-22T08:47:42.532Z,93.11
2023-05-22T08:49:51.863Z,92.45
2023-05-22T08:52:06.476Z,92.65
2023-05-22T08:54:12.689Z,93.63
2023-05-22T08:56:18.138Z,90.63
2023-05-22T08:58:23.672Z,90.20
2023-05-22T09:00:29.881Z,88.68
2023-05-22T09:02:36.314Z,87.61
2023-05-22T09:04:43.821Z,88.42
2023-05-22T09:06:50.782Z,89.16
2023-05-22T09:08:58.798Z,86.02
2023-05-22T09:11:03.716Z,88.81
2023-05-22T09:13:12.778Z,84.33
2023-05-22T09:15:20.610Z,84.53
2023-05-22T09:17:25.896Z,83.45
2023-05-22T09:19:31.011Z,83.13
2023-05-22T09:21:37.098Z,83.09
2023-05-22T09:23:42.199Z,83.45
2023-05-22T09:25:49.936Z,84.98
2023-05-22T09:27:54.865Z,85.78
2023-05-22T09:30:00.181Z,85.04
2023-05-22T09:32:05.289Z,84.56
2023-05-22T09:34:11.496Z,83.71
2023-05-22T09:36:16.431Z,82.08
2023-05-22T09:38:21.742Z,83.35
2023-05-22T09:40:27.009Z,83.82
2023-05-22T09:42:36.197Z,80.75
2023-05-22T09:44:42.791Z,81.80
2023-05-22T09:46:49.294Z,80.36
2023-05-22T09:48:54.831Z,81.61
2023-05-22T09:51:03.665Z,81.16
2023-05-22T09:53:09.135Z,81.04
2023-05-22T09:55:16.155Z,80.85
2023-05-22T09:57:23.341Z,77.71
2023-05-22T09:59:33.510Z,75.81
2023-05-22T10:01:39.671Z,77.18
2023-05-22T10:03:49.306Z,77.23
2023-05-22T10:05:57.392Z,75.31
2023-05-22T10:08:12.103Z,75.07
2023-05-22T10:10:20.290Z,73.82
2023-05-22T10:12:27.779Z,73.75
2023-05-22T10:14:37.556Z,73.94
2023-05-22T10:16:43.428Z,71.75
2023-05-22T10:18:50.467Z,67.90
2023-05-22T10:20:56.281Z,69.31
2023-05-22T10:23:02.488Z,69.03
2023-05-22T10:25:10.778Z,67.57
2023-05-22T10:27:16.019Z,65.76
2023-05-22T10:29:27.116Z,67.14
2023-05-22T10:31:43.990Z,67.77
2023-05-22T10:34:10.953Z,65.15
2023-05-22T10:36:23.135Z,65.63
2023-05-22T10:39:04.873Z,66.11
2023-05-22T10:41:10.385Z,66.55
2023-05-22T10:43:15.513Z,65.65
2023-05-22T10:45:20.751Z,65.05
2023-05-22T10:47:29.284Z,62.42
2023-05-22T10:49:34.762Z,61.99
2023-05-22T10:51:40.860Z,62.01
2023-05-22T10:53:46.607Z,62.29
2023-05-22T10:56:01.576Z,62.27
2023-05-22T10:58:16.359Z,61.57
2023-05-22T11:00:21.949Z,60.14
2023-05-22T11:02:32.390Z,58.30
2023-05-22T11:04:37.376Z,56.59
2023-05-22T11:06:45.764Z,56.18
2023-05-22T11:08:53.162Z,55.26
2023-05-22T11:11:00.150Z,55.66
2023-05-22T11:13:14.136Z,55.54
2023-05-22T11:15:19.292Z,54.35
2023-05-22T11:17:26.205Z,55.56
2023-05-22T11:19:34.016Z,53.28
2023-05-22T11:21:45.132Z,54.52
2023-05-22T11:23:50.476Z,55.30
2023-05-22T11:25:55.813Z,54.27
2023-05-22T11:28:01.394Z,53.63
2023-05-22T11:30:07.692Z,53.73
2023-05-22T11:32:15.452Z,53.63
2023-05-22T11:34:20.484Z,52.99
2023-05-22T11:36:30.629Z,52.93
2023-05-22T11:38:38.733Z,52.92
2023-05-22T11:40:43.701Z,52.70
2023-05-22T11:42:49.741Z,52.44
2023-05-22T11:44:55.007Z,52.40
2023-05-22T11:47:00.314Z,51.53
2023-05-22T11:49:06.802Z,52.16
2023-05-22T11:51:12.478Z,52.13
2023-05-22T11:53:20.137Z,49.27
2023-05-22T11:55:26.423Z,48.78
2023-05-22T11:57:32.207Z,47.61
2023-05-22T11:59:37.192Z,46.06
2023-05-22T12:01:42.187Z,45.95
2023-05-22T12:03:47.197Z,46.06
2023-05-22T12:05:53.639Z,45.57
2023-05-22T12:08:00.765Z,44.84
2023-05-22T12:10:09.395Z,45.45
2023-05-22T12:12:14.678Z,45.37
2023-05-22T12:14:19.733Z,44.42
2023-05-22T12:16:25.466Z,42.93
2023-05-22T12:18:30.516Z,43.25
2023-05-22T12:20:38.075Z,42.25
2023-05-22T12:22:44.744Z,40.20
2023-05-22T12:24:49.694Z,39.81
2023-05-22T12:26:57.015Z,40.43
2023-05-22T12:29:02.880Z,40.90
2023-05-22T12:31:08.057Z,40.99
2023-05-22T12:33:16.903Z,41.78
2023-05-22T12:35:25.640Z,40.54
2023-05-22T12:37:32.015Z,40.38
2023-05-22T12:39:37.053Z,39.74
2023-05-22T12:41:42.238Z,38.53
2023-05-22T12:43:49.841Z,39.37
2023-05-22T12:45:55.044Z,38.94
2023-05-22T12:48:00.080Z,38.87
2023-05-22T12:50:05.131Z,37.69
2023-05-22T12:52:10.093Z,38.13
2023-05-22T12:54:15.575Z,37.54
2023-05-22T12:56:20.535Z,37.20
2023-05-22T12:58:25.457Z,37.64
2023-05-22T13:00:33.037Z,37.66
2023-05-22T13:02:38.177Z,37.10
2023-05-22T13:04:43.173Z,36.83
2023-05-22T13:06:48.290Z,36.89
2023-05-22T13:08:54.562Z,36.92
2023-05-22T13:10:59.687Z,36.23
2023-05-22T13:13:04.672Z,36.68
2023-05-22T13:15:13.106Z,35.90
2023-05-22T13:17:21.106Z,35.27
2023-05-22T13:19:26.408Z,34.86
2023-05-22T13:21:31.785Z,34.43
2023-05-22T13:23:36.848Z,34.35
2023-05-22T13:25:41.977Z,33.53
2023-05-22T13:27:51.720Z,34.30
2023-05-22T13:29:56.643Z,33.49
2023-05-22T13:32:01.644Z,33.78
2023-05-22T13:34:09.690Z,33.47
2023-05-22T13:36:16.016Z,34.04
2023-05-22T13:38:21.099Z,33.11
2023-05-22T13:40:26.245Z,33.27
2023-05-22T13:42:31.433Z,33.13
2023-05-22T13:44:39.708Z,32.60
2023-05-22T13:46:44.624Z,32.62
2023-05-22T13:48:49.681Z,31.93
2023-05-22T13:50:57.291Z,31.94
2023-05-22T13:53:02.251Z,31.71
2023-05-22T13:55:07.830Z,31.82
2023-05-22T13:57:12.792Z,31.15
2023-05-22T13:59:17.776Z,29.98
2023-05-22T14:01:22.838Z,30.08
2023-05-22T14:03:27.833Z,30.00
2023-05-22T14:05:32.917Z,29.31
2023-05-22T14:07:44.066Z,28.90
2023-05-22T14:09:49.009Z,29.44
2023-05-22T14:11:56.722Z,29.29
2023-05-22T14:14:01.734Z,29.41
2023-05-22T14:16:06.943Z,29.32
2023-05-22T14:18:34.844Z,29.48
2023-05-22T14:20:40.029Z,30.95
2023-05-22T14:22:57.260Z,30.82
2023-05-22T14:25:03.302Z,31.36
2023-05-22T14:27:09.119Z,31.15
2023-05-22T14:29:14.588Z,30.60
2023-05-22T14:31:20.232Z,30.81
2023-05-22T14:33:25.284Z,30.08
2023-05-22T14:35:42.934Z,30.21
2023-05-22T14:38:02.067Z,31.03
2023-05-22T14:40:08.010Z,30.91
2023-05-22T14:42:12.918Z,31.06
2023-05-22T14:44:36.197Z,30.65
2023-05-22T14:46:41.269Z,29.95
2023-05-22T14:48:46.250Z,30.99
2023-05-22T14:50:56.436Z,30.65
2023-05-22T14:53:04.043Z,30.09
2023-05-22T14:55:09.470Z,29.66
2023-05-22T14:57:14.580Z,29.69
2023-05-22T14:59:19.659Z,28.79
2023-05-22T15:01:26.537Z,28.84
2023-05-22T15:03:31.822Z,28.11
2023-05-22T15:05:39.693Z,27.74
2023-05-22T15:07:46.713Z,28.18
2023-05-22T15:09:56.558Z,28.01
2023-05-22T15:12:01.711Z,27.55
2023-05-22T15:14:06.657Z,27.08
2023-05-22T15:16:11.677Z,27.25
2023-05-22T15:18:17.381Z,27.29
2023-05-22T15:20:22.326Z,27.33
2023-05-22T15:22:27.409Z,27.20
2023-05-22T15:24:34.980Z,26.93
2023-05-22T15:26:52.961Z,27.21
2023-05-22T15:29:08.311Z,27.00
2023-05-22T15:31:13.555Z,26.54
2023-05-22T15:33:18.756Z,26.88
2023-05-22T15:35:23.758Z,26.59
2023-05-22T15:37:30.317Z,26.13
2023-05-22T15:39:37.157Z,26.38
2023-05-22T15:41:46.602Z,26.06
2023-05-22T15:46:33.700Z,26.09
2023-05-22T15:48:39.007Z,25.79
2023-05-22T15:50:50.053Z,26.15
2023-05-22T15:53:02.154Z,25.45
2023-05-22T15:55:07.854Z,25.59
2023-05-22T15:57:12.833Z,25.13
2023-05-22T15:59:17.794Z,25.15
2023-05-22T16:01:22.745Z,25.47
2023-05-22T16:03:30.534Z,25.73
2023-05-22T16:05:35.817Z,25.30
2023-05-22T16:07:41.043Z,25.49
2023-05-22T16:09:45.962Z,25.03
2023-05-22T16:11:50.904Z,25.21
2023-05-22T16:13:55.934Z,25.01
2023-05-22T16:16:01.885Z,25.06
2023-05-22T16:18:07.237Z,25.21
2023-05-22T16:20:15.512Z,24.95
2023-05-22T16:22:26.299Z,25.05
2023-05-22T16:24:37.223Z,25.88
2023-05-22T16:26:42.236Z,26.45
2023-05-22T16:28:47.162Z,27.54
2023-05-22T16:30:52.073Z,27.76
2023-05-22T16:32:57.195Z,28.09
2023-05-22T16:35:02.203Z,28.61
2023-05-22T16:37:09.839Z,28.68
2023-05-22T16:39:15.716Z,29.72
2023-05-22T16:41:48.017Z,29.40
2023-05-22T16:43:53.388Z,29.93
2023-05-22T16:45:58.617Z,30.46
2023-05-22T16:48:03.647Z,30.32
2023-05-22T16:50:10.605Z,30.45
2023-05-22T16:52:22.432Z,30.75
2023-05-22T16:54:27.346Z,30.74
2023-05-22T16:56:34.348Z,30.85
2023-05-22T16:58:41.253Z,31.51
2023-05-22T17:00:46.431Z,31.57
2023-05-22T17:02:52.823Z,32.20
2023-05-22T17:05:00.646Z,31.91
2023-05-22T17:07:08.885Z,31.93
2023-05-22T17:09:16.469Z,32.35
2023-05-22T17:11:21.454Z,32.51
2023-05-22T17:13:26.616Z,32.85
2023-05-22T17:15:32.002Z,33.09
2023-05-22T17:17:37.026Z,32.62
2023-05-22T17:19:42.046Z,32.50
2023-05-22T17:21:47.551Z,33.19
2023-05-22T17:23:52.564Z,33.04
2023-05-22T17:26:00.169Z,32.77
2023-05-22T17:28:05.141Z,33.70
2023-05-22T17:30:11.558Z,33.72
2023-05-22T17:32:16.491Z,34.00
2023-05-22T17:34:21.812Z,34.40
2023-05-22T17:36:26.447Z,34.30
2023-05-22T17:38:31.595Z,34.29
2023-05-22T17:40:44.638Z,35.11
2023-05-22T17:42:53.359Z,35.14
2023-05-22T17:45:09.346Z,34.67
2023-05-22T17:47:14.432Z,34.81
2023-05-22T17:49:19.525Z,34.90
2023-05-22T17:51:24.663Z,35.31
2023-05-22T17:53:34.904Z,35.46
2023-05-22T17:55:41.222Z,35.95
2023-05-22T17:57:46.766Z,36.02
2023-05-22T17:59:55.445Z,36.14
2023-05-22T18:02:00.406Z,36.39
2023-05-22T18:04:05.586Z,37.03
2023-05-22T18:06:10.929Z,37.38
2023-05-22T18:08:16.020Z,37.79
2023-05-22T18:10:20.963Z,38.43
2023-05-22T18:12:31.788Z,39.13
2023-05-22T18:14:37.301Z,38.66
2023-05-22T18:16:45.218Z,39.22
2023-05-22T18:18:50.601Z,39.40
2023-05-22T18:20:56.299Z,40.54
2023-05-22T18:23:03.544Z,42.52
2023-05-22T18:25:10.737Z,43.39
2023-05-22T18:27:15.706Z,44.10
2023-05-22T18:29:23.060Z,45.41
2023-05-22T18:31:28.277Z,47.20
2023-05-22T18:33:36.202Z,49.03
2023-05-22T18:35:45.305Z,50.38
2023-05-22T18:37:51.758Z,53.02
2023-05-22T18:39:56.885Z,55.23
2023-05-22T18:42:02.598Z,56.78
2023-05-22T18:44:18.112Z,58.20
2023-05-22T18:46:24.118Z,58.76
2023-05-22T18:48:30.167Z,58.98
2023-05-22T18:50:38.379Z,59.27
2023-05-22T18:52:43.841Z,59.00
2023-05-22T18:54:48.494Z,59.65
2023-05-22T18:56:53.838Z,61.59
2023-05-22T18:58:59.154Z,66.19
2023-05-22T19:01:06.559Z,68.38
2023-05-22T19:03:12.567Z,68.08
2023-05-22T19:05:20.916Z,67.86
2023-05-22T19:07:28.517Z,68.36
2023-05-22T19:09:33.433Z,67.92
2023-05-22T19:11:38.493Z,69.33
2023-05-22T19:14:02.031Z,70.13
2023-05-22T19:16:07.588Z,72.33
2023-05-22T19:18:12.730Z,74.48
2023-05-22T19:20:17.814Z,75.30
2023-05-22T19:22:22.640Z,77.73
2023-05-22T19:24:30.699Z,79.52
2023-05-22T19:26:35.840Z,80.75
2023-05-22T19:28:41.072Z,82.29
2023-05-22T19:30:46.331Z,83.92
2023-05-22T19:32:55.929Z,84.71
2023-05-22T19:35:00.929Z,85.67
2023-05-22T19:37:05.864Z,86.79
2023-05-22T19:39:10.901Z,87.85
2023-05-22T19:41:18.513Z,89.31
2023-05-22T19:43:24.423Z,90.89
2023-05-22T19:45:29.620Z,91.09
2023-05-22T19:47:34.603Z,91.90
2023-05-22T19:49:40.259Z,92.98
2023-05-22T19:51:46.123Z,93.92
2023-05-22T19:53:53.850Z,95.08
2023-05-22T19:55:59.608Z,95.94
2023-05-22T19:58:07.277Z,96.93
2023-05-22T20:00:16.178Z,97.77
2023-05-22T20:02:21.378Z,98.77
2023-05-22T20:04:26.584Z,99.30
2023-05-22T20:06:33.888Z,100.00
2023-05-22T20:08:39.008Z,100.00
2023-05-22T20:10:44.289Z,100.00
2023-05-22T20:12:49.281Z,100.00
2023-05-22T20:14:58.527Z,100.00
2023-05-22T20:17:03.425Z,100.00
2023-05-22T20:19:09.377Z,100.00
2023-05-22T20:21:14.474Z,100.00
2023-05-22T20:23:19.470Z,100.00
2023-05-22T20:25:24.685Z,100.00
2023-05-22T20:27:29.833Z,100.00
2023-05-22T20:29:34.809Z,100.00
2023-05-22T20:31:44.708Z,100.00
2023-05-22T20:33:49.746Z,100.00
2023-05-22T20:35:54.768Z,100.00
2023-05-22T20:38:02.666Z,100.00
2023-05-22T20:40:09.525Z,100.00
2023-05-22T20:42:15.194Z,100.00
2023-05-22T20:44:23.832Z,100.00
2023-05-22T20:46:29.453Z,100.00
2023-05-22T20:48:38.153Z,100.00
2023-05-22T20:50:43.678Z,100.00
2023-05-22T20:52:48.645Z,100.00
2023-05-22T20:54:53.575Z,100.00
2023-05-22T20:56:59.837Z,100.00
2023-05-22T20:59:04.839Z,100.00
2023-05-22T21:01:10.519Z,100.00
2023-05-22T21:03:16.472Z,100.00
2023-05-22T21:05:24.272Z,100.00
2023-05-22T21:07:30.613Z,100.00
2023-05-22T21:09:35.745Z,100.00
2023-05-22T21:11:40.396Z,100.00
2023-05-22T21:13:45.403Z,100.00
2023-05-22T21:15:50.079Z,100.00
2023-05-22T21:17:55.016Z,100.00
2023-05-22T21:20:01.036Z,100.00
2023-05-22T21:22:08.862Z,100.00
2023-05-22T21:24:14.014Z,100.00
2023-05-22T21:26:22.453Z,100.00
2023-05-22T21:28:27.611Z,100.00
2023-05-22T21:30:32.306Z,100.00
2023-05-22T21:32:37.324Z,100.00
2023-05-22T21:34:42.075Z,100.00
2023-05-22T21:36:49.971Z,100.00
2023-05-22T21:39:00.397Z,100.00
2023-05-22T21:41:06.261Z,100.00
2023-05-22T21:43:11.315Z,100.00
2023-05-22T21:45:16.038Z,100.00
2023-05-22T21:47:20.957Z,100.00
2023-05-22T21:49:25.976Z,100.00
2023-05-22T21:51:31.980Z,100.00
2023-05-22T21:53:36.934Z,100.00
2023-05-22T21:55:44.529Z,100.00
2023-05-22T21:57:49.476Z,100.00
2023-05-22T21:59:57.378Z,100.00
2023-05-22T22:02:02.697Z,100.00
2023-05-22T22:04:07.954Z,100.00
2023-05-22T22:06:13.128Z,100.00
2023-05-22T22:08:17.882Z,100.00
2023-05-22T22:10:23.011Z,100.00
2023-05-22T22:12:30.799Z,100.00
2023-05-22T22:14:35.719Z,100.00
2023-05-22T22:16:40.880Z,100.00
2023-05-22T22:18:49.215Z,100.00
2023-05-22T22:20:56.104Z,100.00
2023-05-22T22:23:01.412Z,100.00
2023-05-22T22:25:06.755Z,100.00
2023-05-22T22:27:11.697Z,100.00
2023-05-22T22:29:19.272Z,100.00
2023-05-22T22:31:24.745Z,100.00
2023-05-22T22:33:30.536Z,100.00
2023-05-22T22:35:35.658Z,100.00
2023-05-22T22:37:41.308Z,100.00
2023-05-22T22:39:46.261Z,100.00
2023-05-22T22:41:51.012Z,100.00
2023-05-22T22:43:56.309Z,100.00
2023-05-22T22:46:03.957Z,100.00
2023-05-22T22:48:09.104Z,100.00
2023-05-22T22:50:14.372Z,100.00
2023-05-22T22:52:19.294Z,100.00
2023-05-22T22:54:24.518Z,100.00
2023-05-22T22:56:30.661Z,100.00
2023-05-22T22:58:36.735Z,100.00
2023-05-22T23:00:41.748Z,100.00
2023-05-22T23:02:49.136Z,100.00
2023-05-22T23:04:55.524Z,100.00
2023-05-22T23:07:00.611Z,100.00
2023-05-22T23:09:05.595Z,100.00
2023-05-22T23:11:10.569Z,100.00
2023-05-22T23:13:16.247Z,100.00
2023-05-22T23:15:21.414Z,100.00
2023-05-22T23:17:26.090Z,100.00
2023-05-22T23:19:36.946Z,100.00
2023-05-22T23:21:44.131Z,100.00
2023-05-22T23:23:49.079Z,100.00
2023-05-22T23:25:53.964Z,100.00
2023-05-22T23:27:58.911Z,100.00
2023-05-22T23:30:04.612Z,100.00
2023-05-22T23:32:11.243Z,100.00
2023-05-22T23:34:17.250Z,100.00
2023-05-22T23:36:25.335Z,100.00
2023-05-22T23:38:30.587Z,100.00
2023-05-22T23:40:35.587Z,100.00
2023-05-22T23:42:40.337Z,100.00
2023-05-22T23:44:45.357Z,100.00
2023-05-22T23:46:50.902Z,100.00
2023-05-22T23:48:56.033Z,100.00
2023-05-22T23:51:00.976Z,100.00
2023-05-22T23:53:08.522Z,100.00
2023-05-22T23:55:13.541Z,100.00
2023-05-22T23:57:18.648Z,100.00
2023-05-22T23:59:23.913Z,100.00
